createdAt,value
2022-07-29T00:01:41.959Z,1.52
2022-07-29T00:04:09.296Z,1.05
2022-07-29T00:06:36.754Z,1.40
2022-07-29T00:09:04.304Z,1.17
2022-07-29T00:11:31.656Z,1.58
2022-07-29T00:13:58.988Z,1.17
2022-07-29T00:16:26.437Z,1.23
2022-07-29T00:18:53.815Z,1.38
2022-07-29T00:21:21.322Z,1.50
2022-07-29T00:23:48.653Z,1.20
2022-07-29T00:26:16.019Z,1.27
2022-07-29T00:28:43.324Z,1.63
2022-07-29T00:31:10.935Z,1.52
2022-07-29T00:33:38.358Z,1.75
2022-07-29T00:36:05.980Z,0.90
2022-07-29T00:38:33.305Z,1.35
2022-07-29T00:41:00.760Z,1.40
2022-07-29T00:43:28.216Z,1.85
2022-07-29T00:45:55.635Z,1.20
2022-07-29T00:48:22.975Z,1.27
2022-07-29T00:50:51.076Z,1.10
2022-07-29T00:53:18.423Z,1.35
2022-07-29T00:55:45.788Z,1.10
2022-07-29T00:58:14.763Z,1.25
2022-07-29T01:03:12.835Z,1.13
2022-07-29T01:05:50.729Z,1.48
2022-07-29T01:08:19.303Z,1.42
2022-07-29T01:10:47.945Z,1.15
2022-07-29T01:13:16.801Z,1.50
2022-07-29T01:16:00.168Z,1.30
2022-07-29T01:18:35.639Z,1.50
2022-07-29T01:21:12.118Z,1.27
2022-07-29T01:23:45.097Z,1.42
2022-07-29T01:26:34.155Z,0.88
2022-07-29T01:29:24.358Z,1.40
2022-07-29T01:32:00.640Z,1.17
2022-07-29T01:35:01.271Z,1.13
2022-07-29T01:38:02.159Z,1.00
2022-07-29T01:40:44.112Z,1.25
2022-07-29T01:43:18.215Z,1.38
2022-07-29T01:45:51.986Z,1.60
2022-07-29T01:48:28.039Z,1.23
2022-07-29T01:51:12.683Z,1.08
2022-07-29T01:53:47.168Z,1.60
2022-07-29T01:56:19.676Z,1.58
2022-07-29T01:58:47.380Z,1.35
2022-07-29T02:01:15.758Z,1.50
2022-07-29T02:03:46.053Z,1.70
2022-07-29T02:08:41.387Z,1.15
2022-07-29T02:11:09.456Z,1.42
2022-07-29T02:13:39.236Z,1.50
2022-07-29T02:16:10.283Z,1.05
2022-07-29T02:18:41.591Z,1.48
2022-07-29T02:21:15.062Z,1.30
2022-07-29T02:23:51.599Z,1.70
2022-07-29T02:26:21.452Z,1.95
2022-07-29T02:28:51.007Z,1.20
2022-07-29T02:31:21.964Z,1.58
2022-07-29T02:33:50.747Z,1.20
2022-07-29T02:36:18.422Z,1.80
2022-07-29T02:38:52.750Z,1.50
2022-07-29T02:41:30.653Z,1.67
2022-07-29T02:44:15.172Z,1.73
2022-07-29T02:46:52.954Z,1.60
2022-07-29T02:49:48.382Z,1.80
2022-07-29T02:52:27.220Z,1.88
2022-07-29T02:55:07.854Z,1.50
2022-07-29T02:57:53.938Z,1.25
2022-07-29T03:00:25.625Z,1.40
2022-07-29T03:02:55.985Z,1.40
2022-07-29T03:05:24.070Z,2.00
2022-07-29T03:07:56.579Z,1.40
2022-07-29T03:10:24.182Z,1.98
2022-07-29T03:12:51.817Z,1.40
2022-07-29T03:15:19.821Z,1.45
2022-07-29T03:17:48.150Z,1.45
2022-07-29T03:20:15.612Z,1.73
2022-07-29T03:22:44.627Z,1.30
2022-07-29T03:25:13.314Z,1.25
2022-07-29T03:27:40.829Z,1.30
2022-07-29T03:30:09.126Z,1.90
2022-07-29T03:32:36.873Z,2.20
2022-07-29T03:35:05.825Z,1.33
2022-07-29T03:37:34.471Z,2.03
2022-07-29T03:40:04.637Z,1.35
2022-07-29T03:42:39.087Z,1.90
2022-07-29T03:45:14.723Z,1.60
2022-07-29T03:47:50.635Z,1.50
2022-07-29T03:50:21.146Z,1.60
2022-07-29T03:52:49.097Z,1.60
2022-07-29T03:55:16.691Z,1.50
2022-07-29T03:57:44.493Z,1.20
2022-07-29T04:00:12.091Z,1.55
2022-07-29T04:02:40.394Z,1.50
2022-07-29T04:05:13.386Z,1.58
2022-07-29T04:07:41.005Z,1.67
2022-07-29T04:10:08.884Z,1.52
2022-07-29T04:12:36.245Z,1.40
2022-07-29T04:15:04.987Z,1.23
2022-07-29T04:17:32.379Z,1.77
2022-07-29T04:19:59.681Z,1.60
2022-07-29T04:22:27.039Z,1.60
2022-07-29T04:24:55.746Z,1.45
2022-07-29T04:27:24.465Z,1.65
2022-07-29T04:29:56.378Z,1.40
2022-07-29T04:32:25.442Z,1.67
2022-07-29T04:34:53.670Z,1.60
2022-07-29T04:37:21.067Z,1.58
2022-07-29T04:39:48.376Z,1.52
2022-07-29T04:42:15.742Z,1.85
2022-07-29T04:44:44.716Z,1.65
2022-07-29T04:47:13.100Z,1.42
2022-07-29T04:49:43.030Z,1.42
2022-07-29T04:52:10.408Z,1.70
2022-07-29T04:54:37.879Z,1.70
2022-07-29T04:57:05.262Z,1.80
2022-07-29T04:59:32.766Z,1.65
2022-07-29T05:02:00.180Z,1.52
2022-07-29T05:04:27.592Z,1.67
2022-07-29T05:06:54.949Z,2.15
2022-07-29T05:09:22.302Z,1.80
2022-07-29T05:11:49.657Z,1.42
2022-07-29T05:14:17.388Z,2.13
2022-07-29T05:16:45.166Z,1.75
2022-07-29T05:19:14.524Z,1.80
2022-07-29T05:21:42.388Z,3.35
2022-07-29T05:24:09.962Z,2.30
2022-07-29T05:26:37.353Z,1.67
2022-07-29T05:29:04.770Z,1.95
2022-07-29T05:31:32.210Z,1.92
2022-07-29T05:33:59.580Z,2.33
2022-07-29T05:36:27.005Z,3.90
2022-07-29T05:38:54.332Z,2.10
2022-07-29T05:41:22.169Z,1.88
2022-07-29T05:43:49.507Z,2.40
2022-07-29T05:46:17.123Z,2.25
2022-07-29T05:48:44.578Z,2.17
2022-07-29T05:51:12.052Z,1.92
2022-07-29T05:53:39.377Z,2.47
2022-07-29T05:56:06.930Z,2.30
2022-07-29T05:58:34.752Z,1.90
2022-07-29T06:01:02.679Z,2.47
2022-07-29T06:03:30.212Z,2.55
2022-07-29T06:05:57.636Z,2.05
2022-07-29T06:08:25.027Z,1.42
2022-07-29T06:10:52.394Z,2.00
2022-07-29T06:13:19.720Z,1.60
2022-07-29T06:15:47.161Z,1.83
2022-07-29T06:18:14.960Z,1.98
2022-07-29T06:20:42.390Z,1.70
2022-07-29T06:23:11.207Z,1.85
2022-07-29T06:25:38.999Z,1.70
2022-07-29T06:28:06.579Z,1.83
2022-07-29T06:30:34.211Z,2.22
2022-07-29T06:33:02.988Z,1.85
2022-07-29T06:35:38.827Z,1.88
2022-07-29T06:38:31.649Z,1.80
2022-07-29T06:41:08.594Z,1.92
2022-07-29T06:43:42.681Z,2.55
2022-07-29T06:46:19.368Z,2.05
2022-07-29T06:48:47.045Z,2.08
2022-07-29T06:51:14.622Z,1.73
2022-07-29T06:53:58.361Z,2.53
2022-07-29T06:56:29.523Z,2.05
2022-07-29T06:58:56.889Z,1.65
2022-07-29T07:01:24.375Z,2.10
2022-07-29T07:03:51.770Z,1.80
2022-07-29T07:06:18.796Z,1.58
2022-07-29T07:08:46.170Z,1.52
2022-07-29T07:11:13.588Z,1.90
2022-07-29T07:13:40.910Z,2.05
2022-07-29T07:16:08.305Z,1.83
2022-07-29T07:18:35.676Z,2.25
2022-07-29T07:21:03.054Z,1.75
2022-07-29T07:23:30.460Z,1.73
2022-07-29T07:25:57.917Z,1.58
2022-07-29T07:28:25.361Z,1.38
2022-07-29T07:30:53.188Z,1.42
2022-07-29T07:33:20.798Z,2.35
2022-07-29T07:35:48.360Z,1.58
2022-07-29T07:38:15.682Z,1.75
2022-07-29T07:40:42.927Z,1.80
2022-07-29T07:43:10.348Z,1.88
2022-07-29T07:45:38.574Z,1.65
2022-07-29T07:48:06.285Z,1.58
2022-07-29T07:50:33.655Z,1.85
2022-07-29T07:53:03.054Z,1.40
2022-07-29T07:55:42.433Z,1.85
2022-07-29T07:58:17.267Z,1.50
2022-07-29T08:00:44.849Z,1.90
2022-07-29T08:03:16.831Z,1.35
2022-07-29T08:05:45.480Z,1.85
2022-07-29T08:08:12.415Z,1.63
2022-07-29T08:10:54.813Z,1.75
2022-07-29T08:13:23.326Z,1.80
2022-07-29T08:15:58.895Z,1.35
2022-07-29T08:18:30.521Z,1.45
2022-07-29T08:20:58.601Z,2.13
2022-07-29T08:23:32.806Z,1.60
2022-07-29T08:26:14.143Z,2.10
2022-07-29T08:28:45.763Z,1.80
2022-07-29T08:31:14.362Z,1.58
2022-07-29T08:33:41.698Z,2.00
2022-07-29T08:36:09.231Z,2.00
2022-07-29T08:38:36.599Z,1.75
2022-07-29T08:41:04.008Z,2.08
2022-07-29T08:43:30.956Z,2.00
2022-07-29T08:45:58.358Z,2.25
2022-07-29T08:48:25.858Z,1.80
2022-07-29T08:50:57.354Z,1.98
2022-07-29T08:53:28.006Z,1.65
2022-07-29T08:55:55.819Z,1.65
2022-07-29T08:58:24.697Z,2.63
2022-07-29T09:00:55.385Z,2.95
2022-07-29T09:03:26.047Z,1.55
2022-07-29T09:05:53.589Z,1.60
2022-07-29T09:08:21.157Z,1.83
2022-07-29T09:10:48.873Z,2.00
2022-07-29T09:13:16.430Z,1.65
2022-07-29T09:15:43.803Z,1.92
2022-07-29T09:18:19.561Z,2.28
2022-07-29T09:21:17.010Z,2.20
2022-07-29T09:24:03.354Z,2.08
2022-07-29T09:26:35.027Z,1.73
2022-07-29T09:29:10.142Z,1.80
2022-07-29T09:31:43.019Z,2.05
2022-07-29T09:34:11.681Z,2.30
2022-07-29T09:36:47.274Z,1.90
2022-07-29T09:39:15.694Z,1.70
2022-07-29T09:41:55.744Z,2.08
2022-07-29T09:44:23.659Z,2.47
2022-07-29T09:47:08.343Z,1.92
2022-07-29T09:49:36.951Z,1.90
2022-07-29T09:52:12.227Z,1.83
2022-07-29T09:54:39.741Z,1.95
2022-07-29T09:57:10.786Z,2.60
2022-07-29T09:59:50.527Z,2.10
2022-07-29T10:02:22.155Z,1.70
2022-07-29T10:04:51.097Z,2.35
2022-07-29T10:07:18.093Z,2.20
2022-07-29T10:09:58.523Z,2.42
2022-07-29T10:12:26.018Z,2.33
2022-07-29T10:14:53.446Z,2.40
2022-07-29T10:17:20.637Z,2.25
2022-07-29T10:19:48.880Z,2.10
2022-07-29T10:22:31.094Z,1.98
2022-07-29T10:25:04.216Z,2.30
2022-07-29T10:27:32.973Z,2.58
2022-07-29T10:30:00.392Z,2.40
2022-07-29T10:32:54.534Z,2.00
2022-07-29T10:35:26.525Z,2.72
2022-07-29T10:37:56.906Z,2.20
2022-07-29T10:40:45.934Z,2.38
2022-07-29T10:43:27.161Z,2.28
2022-07-29T10:45:58.613Z,2.40
2022-07-29T10:48:25.995Z,2.42
2022-07-29T10:50:57.838Z,2.33
2022-07-29T10:53:25.535Z,2.80
2022-07-29T10:55:54.493Z,1.97
2022-07-29T10:58:26.322Z,2.65
2022-07-29T11:00:55.012Z,2.40
2022-07-29T11:03:49.432Z,2.88
2022-07-29T11:06:18.176Z,1.75
2022-07-29T11:09:16.708Z,1.70
2022-07-29T11:11:51.299Z,3.08
2022-07-29T11:14:19.934Z,2.63
2022-07-29T11:17:00.665Z,3.05
2022-07-29T11:19:30.637Z,2.45
2022-07-29T11:21:58.873Z,2.20
2022-07-29T11:24:32.164Z,1.90
2022-07-29T11:27:21.180Z,3.22
2022-07-29T11:29:53.678Z,2.20
2022-07-29T11:32:23.302Z,2.20
2022-07-29T11:35:19.046Z,2.05
2022-07-29T11:37:52.118Z,1.55
2022-07-29T11:40:22.993Z,1.83
2022-07-29T11:42:52.134Z,3.53
2022-07-29T11:45:42.786Z,2.22
2022-07-29T11:48:28.462Z,1.45
2022-07-29T11:50:59.448Z,2.25
2022-07-29T11:53:28.815Z,2.70
2022-07-29T11:56:00.508Z,2.15
2022-07-29T11:58:29.441Z,2.45
2022-07-29T12:00:57.115Z,2.00
2022-07-29T12:03:33.490Z,1.95
2022-07-29T12:06:12.459Z,1.53
2022-07-29T12:08:43.736Z,1.48
2022-07-29T12:11:21.467Z,1.63
2022-07-29T12:13:50.062Z,1.65
2022-07-29T12:16:25.722Z,1.83
2022-07-29T12:19:03.765Z,1.63
2022-07-29T12:21:56.990Z,2.78
2022-07-29T12:24:27.391Z,1.40
2022-07-29T12:26:55.510Z,1.75
2022-07-29T12:29:33.927Z,1.60
2022-07-29T12:32:02.996Z,1.40
2022-07-29T12:34:30.626Z,1.63
2022-07-29T12:36:57.866Z,1.40
2022-07-29T12:39:27.483Z,1.33
2022-07-29T12:42:03.905Z,1.23
2022-07-29T12:44:48.075Z,1.10
2022-07-29T12:47:15.546Z,1.20
2022-07-29T12:49:42.814Z,1.10
2022-07-29T12:52:34.437Z,1.30
2022-07-29T12:55:02.027Z,1.00
2022-07-29T12:57:29.548Z,1.27
2022-07-29T13:00:12.315Z,1.40
2022-07-29T13:02:40.522Z,1.00
2022-07-29T13:05:09.606Z,1.38
2022-07-29T13:07:55.191Z,1.05
2022-07-29T13:10:24.943Z,1.20
2022-07-29T13:13:11.313Z,1.25
2022-07-29T13:15:43.174Z,0.95
2022-07-29T13:18:33.122Z,1.00
2022-07-29T13:21:12.775Z,0.93
2022-07-29T13:23:39.878Z,1.15
2022-07-29T13:26:12.348Z,1.00
2022-07-29T13:28:39.791Z,1.17
2022-07-29T13:31:06.932Z,1.20
2022-07-29T13:33:34.055Z,0.90
2022-07-29T13:36:01.533Z,1.10
2022-07-29T13:38:30.832Z,1.38
2022-07-29T13:40:59.301Z,1.13
2022-07-29T13:43:26.741Z,1.35
2022-07-29T13:45:54.119Z,1.35
2022-07-29T13:48:21.734Z,1.13
2022-07-29T13:50:49.344Z,1.10
2022-07-29T13:53:17.621Z,1.05
2022-07-29T13:55:45.926Z,1.30
2022-07-29T13:58:13.676Z,1.40
2022-07-29T14:00:41.047Z,0.95
2022-07-29T14:03:08.033Z,1.25
2022-07-29T14:05:35.489Z,1.58
2022-07-29T14:08:02.919Z,1.17
2022-07-29T14:10:29.934Z,1.20
2022-07-29T14:12:56.947Z,1.38
2022-07-29T14:15:24.896Z,1.08
2022-07-29T14:17:53.247Z,1.58
2022-07-29T14:20:20.437Z,1.25
2022-07-29T14:22:48.171Z,1.60
2022-07-29T14:25:15.648Z,1.77
2022-07-29T14:27:44.174Z,1.40
2022-07-29T14:30:12.018Z,1.40
2022-07-29T14:32:39.472Z,1.60
2022-07-29T14:35:07.504Z,1.67
2022-07-29T14:37:39.056Z,1.85
2022-07-29T14:40:10.014Z,1.70
2022-07-29T14:42:38.724Z,1.33
2022-07-29T14:45:07.700Z,1.63
2022-07-29T14:47:35.435Z,2.10
2022-07-29T14:50:02.554Z,3.35
2022-07-29T14:52:29.955Z,2.35
2022-07-29T14:54:57.393Z,2.60
2022-07-29T14:57:24.598Z,2.05
2022-07-29T14:59:52.122Z,1.80
2022-07-29T15:02:19.295Z,1.73
2022-07-29T15:04:47.225Z,2.00
2022-07-29T15:07:14.622Z,1.42
2022-07-29T15:09:49.396Z,1.70
2022-07-29T15:12:17.049Z,1.85
2022-07-29T15:14:44.095Z,4.05
2022-07-29T15:17:11.544Z,3.05
2022-07-29T15:19:39.001Z,2.17
2022-07-29T15:22:12.254Z,2.20
2022-07-29T15:24:39.593Z,2.30
2022-07-29T15:27:06.582Z,1.33
2022-07-29T15:29:34.036Z,1.40
2022-07-29T15:32:02.058Z,2.05
2022-07-29T15:34:29.820Z,1.60
2022-07-29T15:36:57.850Z,1.00
2022-07-29T15:39:25.197Z,1.17
2022-07-29T15:41:52.946Z,1.73
2022-07-29T15:44:21.114Z,1.13
2022-07-29T15:47:04.164Z,1.55
2022-07-29T15:49:48.500Z,1.70
2022-07-29T15:52:25.483Z,1.52
2022-07-29T15:54:55.681Z,1.35
2022-07-29T15:57:23.342Z,1.70
2022-07-29T15:59:50.975Z,2.20
2022-07-29T16:02:18.372Z,1.50
2022-07-29T16:04:45.956Z,1.90
2022-07-29T16:07:14.333Z,1.40
2022-07-29T16:09:42.757Z,1.10
2022-07-29T16:12:14.702Z,1.20
2022-07-29T16:14:44.532Z,2.17
2022-07-29T16:17:14.423Z,4.20
2022-07-29T16:19:43.643Z,5.68
2022-07-29T16:22:11.534Z,3.33
2022-07-29T16:24:39.424Z,2.75
2022-07-29T16:27:06.727Z,2.20
2022-07-29T16:29:34.371Z,1.98
2022-07-29T16:32:01.965Z,1.88
2022-07-29T16:34:29.760Z,2.17
2022-07-29T16:36:57.251Z,1.90
2022-07-29T16:39:24.859Z,1.50
2022-07-29T16:41:51.818Z,1.58
2022-07-29T16:44:18.809Z,1.30
2022-07-29T16:46:46.231Z,1.67
2022-07-29T16:49:19.538Z,1.58
2022-07-29T16:51:50.675Z,1.13
2022-07-29T16:54:18.331Z,1.35
2022-07-29T16:56:46.078Z,1.10
2022-07-29T16:59:13.746Z,1.35
2022-07-29T17:01:40.832Z,1.60
2022-07-29T17:04:08.426Z,1.30
2022-07-29T17:06:37.027Z,1.20
2022-07-29T17:09:05.795Z,1.48
2022-07-29T17:11:51.622Z,2.78
2022-07-29T17:14:24.028Z,2.33
2022-07-29T17:16:58.920Z,2.45
2022-07-29T17:19:28.718Z,2.60
2022-07-29T17:22:03.335Z,2.70
2022-07-29T17:24:34.644Z,2.35
2022-07-29T17:27:02.421Z,1.67
2022-07-29T17:29:29.639Z,1.60
2022-07-29T17:31:59.596Z,2.40
2022-07-29T17:34:26.981Z,3.50
2022-07-29T17:36:54.366Z,2.90
2022-07-29T17:39:21.826Z,3.38
2022-07-29T17:41:49.280Z,3.72
2022-07-29T17:44:16.777Z,3.22
2022-07-29T17:46:44.402Z,3.17
2022-07-29T17:49:11.990Z,3.25
2022-07-29T17:51:39.422Z,3.10
2022-07-29T17:54:06.844Z,4.13
2022-07-29T17:56:34.245Z,2.97
2022-07-29T17:59:06.502Z,3.20
2022-07-29T18:01:39.120Z,3.20
2022-07-29T18:04:06.564Z,3.50
2022-07-29T18:06:33.811Z,3.45
2022-07-29T18:09:01.138Z,3.40
2022-07-29T18:11:30.093Z,3.63
2022-07-29T18:13:57.652Z,3.80
2022-07-29T18:16:25.134Z,3.40
2022-07-29T18:18:52.571Z,3.60
2022-07-29T18:21:37.598Z,3.17
2022-07-29T18:24:07.741Z,3.13
2022-07-29T18:26:35.732Z,3.55
2022-07-29T18:29:03.140Z,2.80
2022-07-29T18:31:30.379Z,2.92
2022-07-29T18:34:00.103Z,2.72
2022-07-29T18:36:27.569Z,2.80
2022-07-29T18:38:54.935Z,2.85
2022-07-29T18:41:22.262Z,2.53
2022-07-29T18:43:49.222Z,3.45
2022-07-29T18:46:16.697Z,2.95
2022-07-29T18:48:43.784Z,2.85
2022-07-29T18:51:11.342Z,2.53
2022-07-29T18:53:38.882Z,2.45
2022-07-29T18:56:06.271Z,3.50
2022-07-29T18:58:33.802Z,2.90
2022-07-29T19:01:01.946Z,2.58
2022-07-29T19:03:29.409Z,3.05
2022-07-29T19:05:56.975Z,2.45
2022-07-29T19:08:24.021Z,2.55
2022-07-29T19:10:53.561Z,2.80
2022-07-29T19:13:21.115Z,3.72
2022-07-29T19:15:48.901Z,2.80
2022-07-29T19:18:17.003Z,2.88
2022-07-29T19:20:44.567Z,3.85
2022-07-29T19:23:12.150Z,4.05
2022-07-29T19:25:53.062Z,4.10
2022-07-29T19:28:22.154Z,4.45
2022-07-29T19:30:50.039Z,5.30
2022-07-29T19:33:18.992Z,4.03
2022-07-29T19:35:49.347Z,3.50
2022-07-29T19:38:18.944Z,3.92
2022-07-29T19:40:46.428Z,2.42
2022-07-29T19:43:51.993Z,2.20
2022-07-29T19:46:04.956Z,2.83
2022-07-29T19:48:34.965Z,3.40
2022-07-29T19:53:30.598Z,3.40
2022-07-29T19:55:58.050Z,3.47
2022-07-29T19:58:28.288Z,3.58
2022-07-29T20:00:56.147Z,3.50
2022-07-29T20:03:23.627Z,3.22
2022-07-29T20:05:52.847Z,3.20
2022-07-29T20:08:20.777Z,3.53
2022-07-29T20:10:48.698Z,3.83
2022-07-29T20:13:17.396Z,3.63
2022-07-29T20:15:46.590Z,3.60
2022-07-29T20:18:16.618Z,3.30
2022-07-29T20:23:12.239Z,3.35
2022-07-29T20:25:41.281Z,3.42
2022-07-29T20:28:08.742Z,3.47
2022-07-29T20:30:38.392Z,3.65
2022-07-29T20:33:06.751Z,3.63
2022-07-29T20:35:34.462Z,3.65
2022-07-29T20:38:01.972Z,3.15
2022-07-29T20:40:30.308Z,3.95
2022-07-29T20:42:57.869Z,3.70
2022-07-29T20:45:25.806Z,3.42
2022-07-29T20:47:53.437Z,3.58
2022-07-29T20:50:23.709Z,3.35
2022-07-29T20:52:52.057Z,3.50
2022-07-29T20:55:19.590Z,3.80
2022-07-29T20:57:46.976Z,3.63
2022-07-29T21:00:14.850Z,3.80
2022-07-29T21:02:42.501Z,3.58
2022-07-29T21:05:09.939Z,3.88
2022-07-29T21:07:37.440Z,3.03
2022-07-29T21:10:05.216Z,3.20
2022-07-29T21:12:33.814Z,3.40
2022-07-29T21:15:05.754Z,4.05
2022-07-29T21:17:38.945Z,3.00
2022-07-29T21:20:08.669Z,3.53
2022-07-29T21:22:36.276Z,3.05
2022-07-29T21:25:04.259Z,3.30
2022-07-29T21:27:54.497Z,2.95
2022-07-29T21:30:22.237Z,2.78
2022-07-29T21:32:49.797Z,3.13
2022-07-29T21:36:01.649Z,2.95
2022-07-29T21:38:04.543Z,3.45
2022-07-29T21:40:31.937Z,3.17
2022-07-29T21:42:59.313Z,3.13
2022-07-29T21:45:27.023Z,3.10
2022-07-29T21:47:54.438Z,3.30
2022-07-29T21:50:21.607Z,3.42
2022-07-29T21:52:48.979Z,3.50
2022-07-29T21:55:16.389Z,3.45
2022-07-29T21:57:46.673Z,2.97
2022-07-29T22:00:17.579Z,3.10
2022-07-29T22:02:45.225Z,3.67
2022-07-29T22:05:13.056Z,3.47
2022-07-29T22:07:54.592Z,3.38
2022-07-29T22:10:26.100Z,3.38
2022-07-29T22:12:54.803Z,3.55
2022-07-29T22:15:23.365Z,4.90
2022-07-29T22:17:51.097Z,3.40
2022-07-29T22:20:18.241Z,3.42
2022-07-29T22:22:45.630Z,3.45
2022-07-29T22:25:13.029Z,3.40
2022-07-29T22:27:40.602Z,4.18
2022-07-29T22:30:08.719Z,3.83
2022-07-29T22:32:38.971Z,3.88
2022-07-29T22:37:33.418Z,3.95
2022-07-29T22:40:00.417Z,3.90
2022-07-29T22:42:27.880Z,3.40
2022-07-29T22:44:55.437Z,3.35
2022-07-29T22:47:46.339Z,3.25
2022-07-29T22:50:10.576Z,2.83
2022-07-29T22:52:37.667Z,2.75
2022-07-29T22:55:06.059Z,3.55
2022-07-29T22:57:33.390Z,3.83
2022-07-29T23:00:03.172Z,3.60
2022-07-29T23:02:30.235Z,3.55
2022-07-29T23:04:57.711Z,3.50
2022-07-29T23:07:25.069Z,3.60
2022-07-29T23:09:52.470Z,3.92
2022-07-29T23:12:19.816Z,3.47
2022-07-29T23:14:47.325Z,3.50
2022-07-29T23:17:14.755Z,4.00
2022-07-29T23:19:42.277Z,4.05
2022-07-29T23:22:09.612Z,3.55
2022-07-29T23:24:37.026Z,3.78
2022-07-29T23:27:04.487Z,3.65
2022-07-29T23:29:36.647Z,3.70
2022-07-29T23:32:04.380Z,3.42
2022-07-29T23:34:31.742Z,3.53
2022-07-29T23:36:59.201Z,3.83
2022-07-29T23:39:26.715Z,3.63
2022-07-29T23:41:54.079Z,4.00
2022-07-29T23:44:21.566Z,3.83
2022-07-29T23:46:49.055Z,3.65
2022-07-29T23:49:16.595Z,3.45
2022-07-29T23:51:44.012Z,3.47
2022-07-29T23:54:11.344Z,4.07
2022-07-29T23:56:38.701Z,3.85
2022-07-29T23:59:06.188Z,4.13
